Time;durP1;ratioP1;P1;durP2;ratioP2;P2;SDS_P1;SDS_P2;PMS_P1;PMS_P2;Temp;Humidity;BMP_temperature;BMP_pressure;BME280_temperature;BME280_humidity;BME280_pressure;Samples;Min_cycle;Max_cycle;Signal;HPM_P1;HPM_P2
2023/09/11 00:02:46;;;;;;;11.77;7.45;;;25.70;69.60;;;;;;7641462;22;80419;-62
2023/09/11 00:05:46;;;;;;;18.40;9.15;;;25.70;69.60;;;;;;7641234;22;81172;-64
2023/09/11 00:08:47;;;;;;;15.18;8.00;;;25.60;69.30;;;;;;7641652;22;80202;-63
2023/09/11 00:11:47;;;;;;;13.95;8.25;;;25.70;69.40;;;;;;7642076;22;80397;-63
2023/09/11 00:14:48;;;;;;;11.20;7.22;;;25.70;69.40;;;;;;7640438;22;80342;-63
2023/09/11 00:17:48;;;;;;;12.88;7.68;;;25.70;69.40;;;;;;7640978;22;80441;-64
2023/09/11 00:20:49;;;;;;;11.18;7.00;;;25.70;69.30;;;;;;7641830;22;80675;-63
2023/09/11 00:23:50;;;;;;;10.10;6.88;;;25.70;69.30;;;;;;7640569;22;80111;-64
2023/09/11 00:26:50;;;;;;;11.38;7.82;;;25.60;69.10;;;;;;7640485;22;80342;-63
2023/09/11 00:29:51;;;;;;;11.43;7.43;;;25.60;69.10;;;;;;7640848;22;80263;-63
2023/09/11 00:32:52;;;;;;;10.02;6.53;;;25.60;69.00;;;;;;7640972;22;80514;-63
2023/09/11 00:35:53;;;;;;;10.25;6.93;;;25.60;68.60;;;;;;7641541;22;80672;-63
2023/09/11 00:38:53;;;;;;;11.70;7.18;;;25.60;68.60;;;;;;7641156;22;80477;-64
2023/09/11 00:41:54;;;;;;;10.30;6.90;;;25.60;68.80;;;;;;7640946;22;79999;-64
2023/09/11 00:44:54;;;;;;;10.73;6.82;;;25.60;68.70;;;;;;7640380;22;81245;-64
2023/09/11 00:47:55;;;;;;;11.70;7.53;;;25.60;68.90;;;;;;7615000;22;81597;-65
2023/09/11 00:50:55;;;;;;;13.80;7.47;;;25.60;68.80;;;;;;7614519;22;83314;-63
2023/09/11 01:58:42;;;;;;;12.02;6.95;;;25.50;67.70;;;;;;7634823;22;81792;-57
2023/09/11 02:01:43;;;;;;;11.95;7.28;;;25.40;67.70;;;;;;7614847;22;83092;-56
2023/09/11 02:04:43;;;;;;;11.73;6.57;;;25.50;68.40;;;;;;7642144;22;80905;-56
2023/09/11 02:07:44;;;;;;;12.75;7.18;;;25.40;67.30;;;;;;7641782;22;80134;-55
2023/09/11 02:10:45;;;;;;;11.05;7.22;;;25.40;67.20;;;;;;7641996;22;81008;-55
2023/09/11 02:13:45;;;;;;;10.32;7.10;;;25.40;67.00;;;;;;7642567;22;81477;-55
2023/09/11 02:16:46;;;;;;;8.50;6.15;;;25.40;66.90;;;;;;7615517;22;80629;-55
2023/09/11 02:19:46;;;;;;;11.40;7.07;;;25.40;66.70;;;;;;7641614;22;80589;-55
2023/09/11 02:22:47;;;;;;;14.00;7.57;;;25.40;66.70;;;;;;7641737;22;81237;-55
2023/09/11 02:25:48;;;;;;;9.35;6.93;;;25.40;66.70;;;;;;7590903;22;82176;-56
2023/09/11 02:28:48;;;;;;;12.95;6.75;;;25.40;66.50;;;;;;7641885;22;80836;-55
2023/09/11 02:31:49;;;;;;;11.43;7.32;;;25.40;67.40;;;;;;7610517;22;81519;-56
2023/09/11 02:34:49;;;;;;;11.93;7.00;;;25.30;66.80;;;;;;7641219;22;80826;-56
2023/09/11 02:37:50;;;;;;;14.00;7.20;;;25.30;66.30;;;;;;7614255;22;83057;-54
2023/09/11 02:40:51;;;;;;;13.75;7.90;;;25.30;66.30;;;;;;7614652;22;82571;-55
2023/09/11 02:43:51;;;;;;;9.00;6.57;;;25.30;66.20;;;;;;7641969;22;80877;-54
2023/09/11 02:46:52;;;;;;;12.00;7.43;;;25.30;66.50;;;;;;7641924;22;80464;-52
2023/09/11 02:49:52;;;;;;;9.50;6.88;;;25.30;66.40;;;;;;7642796;22;80503;-53
2023/09/11 02:52:53;;;;;;;8.80;6.97;;;25.30;66.40;;;;;;7614764;22;83124;-54
2023/09/11 02:55:53;;;;;;;10.65;7.18;;;25.30;66.60;;;;;;7614913;22;83179;-51
2023/09/11 02:58:54;;;;;;;9.60;6.72;;;25.30;66.50;;;;;;7640693;22;80481;-52
2023/09/11 03:01:54;;;;;;;10.43;7.15;;;25.30;66.60;;;;;;7678710;22;80328;-52
2023/09/11 03:04:55;;;;;;;9.32;6.43;;;25.30;66.70;;;;;;7652550;22;81412;-54
2023/09/11 03:07:56;;;;;;;12.05;6.90;;;25.30;66.60;;;;;;7652713;22;83589;-54
2023/09/11 03:10:56;;;;;;;8.48;6.57;;;25.30;66.50;;;;;;7650499;22;81971;-52
2023/09/11 03:13:57;;;;;;;13.43;6.38;;;25.30;66.70;;;;;;7652925;22;80905;-52
2023/09/11 03:16:58;;;;;;;10.63;6.78;;;25.30;66.60;;;;;;7652059;22;81568;-54
2023/09/11 03:19:58;;;;;;;8.93;6.57;;;25.30;66.90;;;;;;7651792;22;82867;-53
2023/09/11 03:22:59;;;;;;;10.65;7.30;;;25.30;66.80;;;;;;7679941;22;80644;-56
2023/09/11 03:26:00;;;;;;;14.27;7.90;;;25.30;66.90;;;;;;7678110;22;80461;-55
2023/09/11 03:29:01;;;;;;;11.45;7.38;;;25.30;67.10;;;;;;7678918;22;80292;-55
2023/09/11 03:32:03;;;;;;;12.95;6.97;;;25.20;67.00;;;;;;7651707;22;82932;-55
2023/09/11 03:35:04;;;;;;;11.77;6.95;;;25.20;67.00;;;;;;7627536;22;83184;-56
2023/09/11 03:38:05;;;;;;;9.43;6.72;;;25.20;67.10;;;;;;7652382;22;83687;-55
2023/09/11 03:41:05;;;;;;;9.90;6.28;;;25.20;67.20;;;;;;7652040;22;82361;-54
2023/09/11 03:44:06;;;;;;;12.05;8.65;;;25.20;67.20;;;;;;7652767;22;83377;-55
2023/09/11 03:47:07;;;;;;;9.55;6.72;;;25.20;67.10;;;;;;7651016;22;83053;-56
2023/09/11 03:50:07;;;;;;;14.63;6.90;;;25.20;67.10;;;;;;7648907;22;82939;-53
2023/09/11 03:53:08;;;;;;;7.40;6.35;;;25.20;67.30;;;;;;7651269;22;83332;-54
2023/09/11 03:56:09;;;;;;;12.45;5.50;;;25.20;67.90;;;;;;7652840;22;82527;-55
2023/09/11 03:59:09;;;;;;;12.48;6.50;;;25.30;68.00;;;;;;7679571;22;80474;-56
2023/09/11 04:02:10;;;;;;;9.25;5.72;;;25.30;67.80;;;;;;7680486;22;80119;-57
2023/09/11 04:05:11;;;;;;;10.27;6.90;;;25.30;67.70;;;;;;7628029;22;83217;-55
2023/09/11 04:08:11;;;;;;;15.13;7.25;;;25.30;67.70;;;;;;7679288;22;80261;-56
2023/09/11 04:11:12;;;;;;;8.52;6.82;;;25.30;67.60;;;;;;7678721;22;80193;-54
2023/09/11 04:14:12;;;;;;;13.57;6.65;;;25.40;67.60;;;;;;7652396;22;83345;-56
2023/09/11 04:17:13;;;;;;;9.05;6.40;;;25.30;67.50;;;;;;7677914;22;80561;-55
2023/09/11 04:20:13;;;;;;;7.68;6.20;;;25.30;67.40;;;;;;7652905;22;83532;-57
2023/09/11 04:23:14;;;;;;;12.38;6.40;;;25.40;68.10;;;;;;7679791;22;79985;-55
2023/09/11 04:26:15;;;;;;;15.20;5.85;;;25.30;67.90;;;;;;7650912;22;83461;-55
2023/09/11 04:29:16;;;;;;;7.28;5.72;;;25.30;68.60;;;;;;7652955;22;82264;-57
2023/09/11 04:32:18;;;;;;;10.27;6.13;;;25.40;68.30;;;;;;7649265;22;83063;-57
2023/09/11 04:35:20;;;;;;;11.82;6.35;;;25.30;68.60;;;;;;7626121;22;82037;-56
2023/09/11 04:38:20;;;;;;;7.93;5.93;;;25.40;68.90;;;;;;7651247;22;82895;-49
2023/09/11 04:41:21;;;;;;;7.03;5.82;;;25.30;69.30;;;;;;7651743;22;83326;-56
2023/09/11 04:44:22;;;;;;;9.65;5.80;;;25.40;69.20;;;;;;7678789;22;79965;-58
2023/09/11 04:47:24;;;;;;;12.18;6.60;;;25.40;69.50;;;;;;7652098;22;82130;-58
2023/09/11 04:50:25;;;;;;;8.80;5.68;;;25.40;69.60;;;;;;7651321;22;82477;-55
2023/09/11 04:53:25;;;;;;;11.90;5.80;;;25.40;69.60;;;;;;7651747;22;82061;-53
2023/09/11 04:56:26;;;;;;;9.88;6.45;;;25.50;69.80;;;;;;7649902;22;81478;-49
2023/09/11 04:59:26;;;;;;;10.95;5.75;;;25.50;69.70;;;;;;7678552;22;80262;-53
2023/09/11 05:02:28;;;;;;;8.18;5.65;;;25.40;69.40;;;;;;7678172;22;80269;-54
2023/09/11 05:05:28;;;;;;;14.88;7.00;;;25.40;70.10;;;;;;7651787;22;83152;-59
2023/09/11 05:08:29;;;;;;;15.32;6.47;;;25.40;69.60;;;;;;7649686;22;81573;-59
2023/09/11 05:11:30;;;;;;;12.50;6.32;;;25.40;69.80;;;;;;7624850;22;83631;-56
2023/09/11 05:14:30;;;;;;;9.25;6.00;;;25.40;69.80;;;;;;7673740;22;80693;-59
2023/09/11 05:17:31;;;;;;;13.07;5.95;;;25.50;69.60;;;;;;7625410;22;83206;-59
2023/09/11 05:20:32;;;;;;;11.15;6.00;;;25.50;69.50;;;;;;7650857;22;80479;-58
2023/09/11 05:23:32;;;;;;;8.30;5.43;;;25.50;69.40;;;;;;7652590;22;83069;-61
2023/09/11 05:26:34;;;;;;;10.55;6.70;;;25.50;69.60;;;;;;7677061;22;81442;-59
2023/09/11 05:29:34;;;;;;;14.00;7.38;;;25.40;69.80;;;;;;7676606;22;80956;-59
2023/09/11 05:32:35;;;;;;;10.43;7.22;;;25.40;69.20;;;;;;7642473;22;80875;-60
2023/09/11 05:35:36;;;;;;;11.23;7.45;;;25.40;69.20;;;;;;7676907;22;81811;-60
2023/09/11 05:38:37;;;;;;;15.38;7.32;;;25.40;68.80;;;;;;7646409;22;81787;-59
2023/09/11 05:41:37;;;;;;;11.52;6.93;;;25.40;68.30;;;;;;7673605;22;80531;-60
2023/09/11 05:44:38;;;;;;;17.15;7.65;;;25.40;68.00;;;;;;7674137;22;80473;-59
2023/09/11 05:47:39;;;;;;;14.20;7.90;;;25.40;67.90;;;;;;7661195;22;80653;-58
2023/09/11 05:50:40;;;;;;;14.93;7.65;;;25.30;67.60;;;;;;7666237;22;80976;-60
2023/09/11 05:53:40;;;;;;;14.57;7.63;;;25.30;67.50;;;;;;7674329;22;81124;-59
2023/09/11 05:56:41;;;;;;;11.85;7.30;;;25.30;67.40;;;;;;7677307;22;80488;-59
2023/09/11 05:59:42;;;;;;;12.68;8.15;;;25.30;67.40;;;;;;7523648;22;81941;-59
2023/09/11 06:02:46;;;;;;;16.35;8.45;;;25.30;67.40;;;;;;7520316;22;81404;-59
2023/09/11 06:05:46;;;;;;;10.75;7.43;;;25.30;67.30;;;;;;7520839;22;82059;-61
2023/09/11 06:08:47;;;;;;;10.00;7.53;;;25.30;67.40;;;;;;7524947;22;81695;-60
2023/09/11 06:11:47;;;;;;;13.05;8.48;;;25.30;67.40;;;;;;7531246;22;81778;-60
2023/09/11 06:14:48;;;;;;;11.93;7.38;;;25.40;67.60;;;;;;7525914;22;82072;-59
2023/09/11 06:17:48;;;;;;;15.35;8.32;;;25.30;67.70;;;;;;7526031;22;82149;-59
2023/09/11 06:20:49;;;;;;;9.93;6.63;;;25.30;67.60;;;;;;7530068;22;82129;-59
2023/09/11 06:23:49;;;;;;;15.98;8.43;;;25.30;67.80;;;;;;7524400;22;82181;-59
2023/09/11 06:26:50;;;;;;;9.85;7.47;;;25.30;67.80;;;;;;7525943;22;81880;-60
2023/09/11 06:29:51;;;;;;;9.77;6.60;;;25.30;67.90;;;;;;7514936;22;82130;-59
2023/09/11 06:32:51;;;;;;;10.18;7.20;;;25.30;67.90;;;;;;7521488;22;82175;-60
2023/09/11 06:35:51;;;;;;;13.35;7.15;;;25.30;67.80;;;;;;7676330;22;80473;-58
2023/09/11 06:38:52;;;;;;;9.77;6.32;;;25.30;67.70;;;;;;7676114;22;80747;-59
2023/09/11 06:41:52;;;;;;;10.57;7.00;;;25.40;67.80;;;;;;7676744;22;80708;-59
2023/09/11 06:44:53;;;;;;;10.35;6.60;;;25.40;67.70;;;;;;7676538;22;80228;-59
2023/09/11 06:47:54;;;;;;;11.88;6.93;;;25.40;67.80;;;;;;7677786;22;80702;-59
2023/09/11 06:50:54;;;;;;;14.13;7.75;;;25.50;67.90;;;;;;7678056;22;80345;-59
2023/09/11 06:53:55;;;;;;;9.02;7.40;;;25.40;67.80;;;;;;7677089;22;81182;-59
2023/09/11 06:56:55;;;;;;;10.13;7.40;;;25.50;67.90;;;;;;7678048;22;81406;-59
2023/09/11 06:59:56;;;;;;;10.20;7.55;;;25.50;68.30;;;;;;7678674;22;80299;-57
2023/09/11 07:02:56;;;;;;;12.73;7.20;;;25.50;68.20;;;;;;7673307;22;80406;-59
2023/09/11 07:05:57;;;;;;;10.82;7.05;;;25.50;69.10;;;;;;7678598;22;80380;-60
2023/09/11 07:08:57;;;;;;;13.77;8.38;;;25.50;69.00;;;;;;7676832;22;80692;-60
2023/09/11 07:11:58;;;;;;;12.18;8.88;;;25.50;69.40;;;;;;7678036;22;80254;-60
2023/09/11 07:14:58;;;;;;;11.48;8.07;;;25.50;69.80;;;;;;7677064;22;80982;-59
2023/09/11 07:18:00;;;;;;;11.63;7.95;;;25.50;69.80;;;;;;7676121;22;80829;-60
2023/09/11 07:21:00;;;;;;;13.88;8.25;;;25.50;70.00;;;;;;7678507;22;81266;-60
2023/09/11 07:24:01;;;;;;;16.00;8.57;;;25.50;70.30;;;;;;7651123;22;80736;-61
2023/09/11 07:27:01;;;;;;;13.90;8.13;;;25.50;70.20;;;;;;7676973;22;80443;-60
2023/09/11 07:30:03;;;;;;;15.20;8.15;;;25.50;71.00;;;;;;7675913;22;80601;-60
2023/09/11 07:33:04;;;;;;;13.25;8.52;;;25.60;70.10;;;;;;7676865;22;81112;-60
2023/09/11 07:36:04;;;;;;;14.55;7.95;;;25.50;69.50;;;;;;7676696;22;80143;-60
2023/09/11 07:39:05;;;;;;;9.55;6.93;;;25.50;69.20;;;;;;7677566;22;80434;-59
2023/09/11 07:42:07;;;;;;;11.25;6.55;;;25.60;69.40;;;;;;7676244;22;81351;-60
2023/09/11 07:45:07;;;;;;;13.13;6.65;;;25.70;67.70;;;;;;7677658;22;81186;-60
2023/09/11 07:48:08;;;;;;;19.00;6.68;;;25.70;68.30;;;;;;7676940;22;80406;-60
2023/09/11 07:51:08;;;;;;;9.23;6.78;;;25.80;68.00;;;;;;7676635;22;80439;-60
2023/09/11 07:54:09;;;;;;;6.70;5.80;;;25.80;67.80;;;;;;7651102;22;81610;-59
2023/09/11 07:57:12;;;;;;;10.68;6.40;;;25.90;67.40;;;;;;7677819;22;81532;-60
2023/09/11 08:00:13;;;;;;;9.15;6.28;;;25.90;67.10;;;;;;7678496;22;80407;-61
2023/09/11 08:03:13;;;;;;;16.10;7.03;;;25.90;67.30;;;;;;7678017;22;80507;-60
2023/09/11 08:06:14;;;;;;;14.38;7.65;;;25.90;68.70;;;;;;7678477;22;80218;-60
2023/09/11 08:09:14;;;;;;;15.68;8.20;;;25.80;68.90;;;;;;7678330;22;80305;-60
2023/09/11 08:12:16;;;;;;;11.45;8.02;;;25.80;69.50;;;;;;7675902;22;80335;-60
2023/09/11 08:15:16;;;;;;;12.75;7.80;;;25.80;69.10;;;;;;7677679;22;80247;-60
2023/09/11 08:18:17;;;;;;;12.25;7.90;;;25.80;69.50;;;;;;7678896;22;81003;-60
2023/09/11 08:21:19;;;;;;;13.35;7.13;;;25.80;69.20;;;;;;7669905;22;80615;-60
2023/09/11 08:24:19;;;;;;;9.95;7.00;;;25.80;69.00;;;;;;7679168;22;80777;-59
2023/09/11 08:27:20;;;;;;;15.10;6.88;;;25.80;69.00;;;;;;7676964;22;80142;-60
2023/09/11 08:30:21;;;;;;;10.75;5.65;;;25.90;67.80;;;;;;7647981;22;81623;-60
2023/09/11 08:33:21;;;;;;;11.80;6.90;;;26.00;67.20;;;;;;7668194;22;80954;-59
2023/09/11 08:36:22;;;;;;;13.45;6.82;;;26.00;67.40;;;;;;7672490;22;80298;-59
2023/09/11 08:39:23;;;;;;;10.30;6.72;;;26.00;67.10;;;;;;7677448;22;81555;-59
2023/09/11 08:42:23;;;;;;;10.20;6.05;;;26.00;67.10;;;;;;7677018;22;80629;-59
2023/09/11 08:45:24;;;;;;;24.45;6.40;;;26.00;66.40;;;;;;7677257;22;81028;-58
2023/09/11 08:48:25;;;;;;;8.98;5.70;;;26.10;64.50;;;;;;7677594;22;80578;-57
2023/09/11 08:51:25;;;;;;;7.85;5.47;;;26.20;64.30;;;;;;7677176;22;80648;-58
2023/09/11 08:54:26;;;;;;;10.95;6.60;;;26.20;64.00;;;;;;7650481;22;83626;-59
2023/09/11 08:57:26;;;;;;;13.82;5.88;;;26.20;64.00;;;;;;7675095;22;80704;-58
2023/09/11 09:00:28;;;;;;;8.77;6.13;;;26.20;64.20;;;;;;7675093;22;80590;-59
2023/09/11 09:03:28;;;;;;;9.32;5.90;;;26.20;63.40;;;;;;7676440;22;80390;-57
2023/09/11 09:06:29;;;;;;;9.25;6.30;;;26.30;64.60;;;;;;7648210;22;81732;-59
2023/09/11 09:09:29;;;;;;;18.83;6.43;;;26.30;63.90;;;;;;7671640;22;80562;-59
2023/09/11 09:12:30;;;;;;;9.10;5.47;;;26.40;62.70;;;;;;7672613;22;81207;-59
2023/09/11 09:15:30;;;;;;;8.48;5.55;;;26.40;64.30;;;;;;7672347;22;80462;-59
2023/09/11 09:18:31;;;;;;;10.93;5.65;;;26.40;63.40;;;;;;7676057;22;80883;-58
2023/09/11 09:21:32;;;;;;;7.57;5.65;;;26.40;63.70;;;;;;7674340;22;80897;-59
2023/09/11 09:24:33;;;;;;;5.57;5.00;;;26.40;63.10;;;;;;7677065;22;80296;-59
2023/09/11 09:27:34;;;;;;;7.78;5.63;;;26.30;63.00;;;;;;7677715;22;80195;-59
2023/09/11 09:30:34;;;;;;;11.70;6.35;;;26.30;63.10;;;;;;7650846;22;80446;-58
2023/09/11 09:33:35;;;;;;;7.85;5.38;;;26.30;63.30;;;;;;7679297;22;80297;-60
2023/09/11 09:36:35;;;;;;;10.73;6.63;;;26.30;62.30;;;;;;7680505;22;80495;-60
2023/09/11 09:39:38;;;;;;;9.73;5.78;;;26.30;61.90;;;;;;7650264;22;81059;-59
2023/09/11 09:42:40;;;;;;;11.07;5.60;;;26.30;62.80;;;;;;7678490;22;80654;-59
2023/09/11 09:45:42;;;;;;;11.02;6.15;;;26.30;63.00;;;;;;7677879;22;80212;-59
2023/09/11 09:48:42;;;;;;;8.80;5.22;;;26.50;63.00;;;;;;7679653;22;80533;-59
2023/09/11 09:51:43;;;;;;;7.60;5.72;;;26.50;62.70;;;;;;7678371;22;80387;-59
2023/09/11 09:54:43;;;;;;;7.35;5.95;;;26.50;62.70;;;;;;7678860;22;80059;-59
2023/09/11 09:57:44;;;;;;;10.45;5.93;;;26.50;62.20;;;;;;7675666;22;80308;-59
2023/09/11 10:00:44;;;;;;;12.40;6.47;;;26.60;62.80;;;;;;7677791;22;81616;-59
2023/09/11 10:03:45;;;;;;;9.55;5.45;;;26.50;62.50;;;;;;7678818;22;80442;-58
2023/09/11 10:06:46;;;;;;;9.43;5.75;;;26.60;62.40;;;;;;7678685;22;80673;-59
2023/09/11 10:09:46;;;;;;;7.20;5.20;;;26.50;62.00;;;;;;7678755;22;80513;-59
2023/09/11 10:12:47;;;;;;;10.65;5.60;;;26.50;62.00;;;;;;7679773;22;80591;-59
2023/09/11 10:15:47;;;;;;;11.90;6.43;;;26.60;61.90;;;;;;7679735;22;81228;-59
2023/09/11 10:18:48;;;;;;;9.07;5.72;;;26.70;61.60;;;;;;7680385;22;81184;-59
2023/09/11 10:21:48;;;;;;;11.80;5.80;;;26.80;61.70;;;;;;7679392;22;80315;-59
2023/09/11 10:24:49;;;;;;;10.85;6.32;;;26.80;61.90;;;;;;7679355;22;80419;-59
2023/09/11 10:27:49;;;;;;;8.77;5.50;;;26.80;61.90;;;;;;7679351;22;80280;-59
2023/09/11 10:30:50;;;;;;;10.85;6.90;;;26.80;62.10;;;;;;7679018;22;80506;-59
2023/09/11 11:00:05;;;;;;;11.02;6.63;;;26.80;62.10;;;;;;7672200;22;80931;-60
2023/09/11 11:03:06;;;;;;;8.27;6.28;;;26.80;61.80;;;;;;7678769;22;81167;-59
2023/09/11 11:06:08;;;;;;;7.63;5.78;;;26.80;62.20;;;;;;7679986;22;80979;-60
2023/09/11 11:09:08;;;;;;;10.60;6.45;;;26.80;61.50;;;;;;7679109;22;80840;-60
2023/09/11 11:12:08;;;;;;;8.68;6.22;;;26.80;61.70;;;;;;7680090;22;80965;-60
2023/09/11 11:15:09;;;;;;;10.55;6.20;;;26.90;61.40;;;;;;7680729;22;80620;-60
2023/09/11 11:18:10;;;;;;;9.35;6.43;;;26.90;61.70;;;;;;7652437;22;81946;-60
2023/09/11 11:21:11;;;;;;;9.15;6.75;;;26.90;62.10;;;;;;7679783;22;81107;-60
2023/09/11 11:24:12;;;;;;;10.00;6.35;;;27.00;61.60;;;;;;7673749;22;80517;-59
2023/09/11 11:27:12;;;;;;;7.55;6.43;;;27.00;60.40;;;;;;7677837;22;80954;-60
2023/09/11 11:30:13;;;;;;;6.97;6.25;;;27.10;61.50;;;;;;7679313;22;80159;-60
2023/09/11 11:33:14;;;;;;;12.45;6.90;;;27.30;58.90;;;;;;7679175;22;80441;-60
2023/09/11 11:36:14;;;;;;;9.07;6.28;;;27.50;58.70;;;;;;7679836;22;80493;-60
2023/09/11 11:39:15;;;;;;;14.45;7.22;;;27.40;59.60;;;;;;7650582;22;81428;-60
2023/09/11 11:42:16;;;;;;;7.07;6.28;;;27.30;59.60;;;;;;7651687;22;80832;-60
2023/09/11 11:45:16;;;;;;;14.13;7.00;;;27.20;60.20;;;;;;7679395;22;81175;-60
2023/09/11 11:48:17;;;;;;;8.50;5.90;;;27.30;59.50;;;;;;7679702;22;80486;-60
2023/09/11 11:51:18;;;;;;;9.38;6.35;;;27.40;59.00;;;;;;7678051;22;81147;-59
2023/09/11 11:54:18;;;;;;;9.93;5.95;;;27.40;59.30;;;;;;7679148;22;80372;-60
2023/09/11 11:57:19;;;;;;;7.60;5.80;;;27.60;59.00;;;;;;7677619;22;80426;-60
2023/09/11 12:00:19;;;;;;;10.07;5.60;;;27.50;59.40;;;;;;7679314;22;79941;-60
2023/09/11 12:03:20;;;;;;;8.80;6.50;;;27.60;59.10;;;;;;7678481;22;80273;-60
2023/09/11 12:06:20;;;;;;;7.53;5.40;;;27.60;58.90;;;;;;7678574;22;80850;-56
2023/09/11 12:09:21;;;;;;;10.55;5.82;;;27.70;57.40;;;;;;7679583;22;80500;-59
2023/09/11 12:12:21;;;;;;;10.02;5.95;;;27.80;57.30;;;;;;7681036;22;80387;-56
2023/09/11 12:15:22;;;;;;;6.45;5.63;;;27.90;56.10;;;;;;7677154;22;80566;-59
2023/09/11 12:18:23;;;;;;;10.85;6.30;;;28.00;56.20;;;;;;7676845;22;80681;-60
2023/09/11 12:21:23;;;;;;;12.40;5.80;;;28.00;57.00;;;;;;7675714;22;81182;-59
2023/09/11 12:24:24;;;;;;;7.13;5.30;;;27.90;57.50;;;;;;7663765;22;80203;-58
2023/09/11 12:27:25;;;;;;;7.82;5.82;;;27.80;57.20;;;;;;6991832;22;82923;-57
2023/09/11 12:30:25;;;;;;;10.85;6.22;;;28.00;57.80;;;;;;7041779;22;82911;-59
2023/09/11 12:33:26;;;;;;;6.35;5.45;;;28.00;56.50;;;;;;7665310;22;80640;-60
2023/09/11 12:36:26;;;;;;;6.82;5.78;;;28.00;56.70;;;;;;7678382;22;80420;-59
2023/09/11 12:39:27;;;;;;;8.63;6.10;;;28.00;57.40;;;;;;7679337;22;80760;-59
2023/09/11 12:42:27;;;;;;;6.40;5.28;;;28.00;56.60;;;;;;7679633;22;80662;-59
2023/09/11 12:45:28;;;;;;;7.22;5.68;;;28.10;57.20;;;;;;7678815;22;80463;-59
2023/09/11 12:48:29;;;;;;;7.45;6.50;;;28.20;57.20;;;;;;7679077;22;80452;-59
2023/09/11 12:51:29;;;;;;;6.78;5.90;;;28.20;57.70;;;;;;7678899;22;80260;-59
2023/09/11 12:54:31;;;;;;;8.63;5.55;;;28.10;57.70;;;;;;7678389;22;81291;-59
2023/09/11 12:57:32;;;;;;;7.28;5.75;;;28.10;58.30;;;;;;7679751;22;81000;-59
2023/09/11 13:00:33;;;;;;;7.93;5.85;;;28.00;58.30;;;;;;7679604;22;80411;-59
2023/09/11 13:03:33;;;;;;;8.60;6.22;;;28.00;58.50;;;;;;7679770;22;80236;-58
2023/09/11 13:06:34;;;;;;;7.78;6.53;;;28.00;58.40;;;;;;7678682;22;80654;-59
2023/09/11 13:09:35;;;;;;;12.52;5.90;;;28.00;58.40;;;;;;7678822;22;79780;-59
2023/09/11 13:12:36;;;;;;;8.10;6.25;;;28.10;56.60;;;;;;7678854;22;80453;-58
2023/09/11 13:15:36;;;;;;;8.27;6.25;;;28.20;56.80;;;;;;7679499;22;80864;-59
2023/09/11 13:18:37;;;;;;;10.60;5.93;;;28.30;56.50;;;;;;7679440;22;81088;-59
2023/09/11 13:21:37;;;;;;;12.07;5.78;;;28.40;55.60;;;;;;7680539;22;80350;-58
2023/09/11 13:24:38;;;;;;;10.15;5.50;;;28.40;56.30;;;;;;7679925;22;80312;-59
2023/09/11 13:27:38;;;;;;;6.63;5.07;;;28.30;57.20;;;;;;7678907;22;81437;-58
2023/09/11 13:30:39;;;;;;;10.85;6.00;;;28.20;57.60;;;;;;7678888;22;80949;-58
2023/09/11 13:33:41;;;;;;;9.68;5.90;;;28.20;57.70;;;;;;7678389;22;80475;-59
2023/09/11 13:36:42;;;;;;;12.43;6.57;;;28.10;58.20;;;;;;7678344;22;80366;-58
2023/09/11 13:39:42;;;;;;;9.10;6.35;;;28.00;58.50;;;;;;7676884;22;80336;-59
2023/09/11 13:42:43;;;;;;;9.98;7.00;;;27.90;58.10;;;;;;7678148;22;80239;-58
2023/09/11 13:45:43;;;;;;;12.20;6.28;;;27.80;58.30;;;;;;7653291;22;81771;-58
2023/09/11 13:48:44;;;;;;;8.95;6.32;;;27.90;57.40;;;;;;7680863;22;81300;-59
2023/09/11 13:51:45;;;;;;;8.00;6.63;;;28.00;57.50;;;;;;7681644;22;80391;-59
2023/09/11 13:54:46;;;;;;;9.52;6.15;;;28.00;58.40;;;;;;7680494;22;81623;-59
2023/09/11 14:23:16;;;;;;;8.07;7.03;;;27.60;57.90;;;;;;7679580;22;80575;-59
2023/09/11 14:26:21;;;;;;;11.75;7.07;;;27.60;58.40;;;;;;7679852;22;80355;-56
2023/09/11 14:29:22;;;;;;;8.93;6.30;;;27.50;58.00;;;;;;7680177;22;80361;-59
2023/09/11 14:32:22;;;;;;;10.35;6.65;;;27.50;58.80;;;;;;7678407;22;81243;-59
2023/09/11 14:35:23;;;;;;;15.45;6.78;;;27.50;58.70;;;;;;7679397;22;81069;-58
2023/09/11 14:38:23;;;;;;;15.10;6.55;;;27.60;58.50;;;;;;7652883;22;81334;-59
2023/09/11 14:41:24;;;;;;;14.88;6.15;;;27.70;57.80;;;;;;7679632;22;80724;-59
2023/09/11 14:44:24;;;;;;;11.10;6.05;;;27.70;58.00;;;;;;7680365;22;80472;-58
2023/09/11 14:47:26;;;;;;;9.60;6.95;;;27.60;58.10;;;;;;7679130;22;80079;-56
2023/09/11 14:50:27;;;;;;;14.43;7.38;;;27.60;58.30;;;;;;7673604;22;80214;-58
2023/09/11 14:53:27;;;;;;;9.35;6.57;;;27.60;58.50;;;;;;7679086;22;87645;-51
2023/09/11 14:56:28;;;;;;;28.77;8.20;;;27.60;58.80;;;;;;7677150;22;81607;-59
2023/09/11 14:59:28;;;;;;;10.68;6.30;;;27.60;59.40;;;;;;7680261;22;80330;-59
2023/09/11 15:02:29;;;;;;;10.70;7.15;;;27.60;59.50;;;;;;7680226;22;80476;-58
2023/09/11 15:05:29;;;;;;;13.27;7.00;;;27.50;59.10;;;;;;7678368;22;80539;-58
2023/09/11 15:08:30;;;;;;;16.55;7.60;;;27.50;59.20;;;;;;7678785;22;80404;-57
2023/09/11 15:11:31;;;;;;;13.95;6.55;;;27.40;59.30;;;;;;7678860;22;80441;-57
2023/09/11 15:14:31;;;;;;;11.25;6.50;;;27.40;59.30;;;;;;7679835;22;80254;-58
2023/09/11 15:17:32;;;;;;;9.88;6.57;;;27.30;59.30;;;;;;7651152;22;81664;-56
2023/09/11 15:20:32;;;;;;;17.30;7.28;;;27.30;59.30;;;;;;7679125;22;80665;-57
2023/09/11 15:23:33;;;;;;;10.90;6.90;;;27.40;59.60;;;;;;7679645;22;80729;-57
2023/09/11 15:26:35;;;;;;;10.65;6.78;;;27.30;59.60;;;;;;7672136;22;82237;-58
2023/09/11 15:29:35;;;;;;;10.50;7.22;;;27.30;59.70;;;;;;7674908;22;81721;-58
2023/09/11 15:32:36;;;;;;;11.00;6.90;;;27.30;59.50;;;;;;7680367;22;80362;-58
2023/09/11 15:35:36;;;;;;;8.98;6.18;;;27.30;59.70;;;;;;7679669;22;80669;-58
2023/09/11 15:38:37;;;;;;;11.32;6.55;;;27.30;59.60;;;;;;7681449;22;80436;-58
2023/09/11 15:41:37;;;;;;;9.20;6.80;;;27.30;59.70;;;;;;7678611;22;80877;-57
2023/09/11 15:44:38;;;;;;;13.35;6.50;;;27.30;59.70;;;;;;7682106;22;80405;-58
2023/09/11 15:47:38;;;;;;;9.68;6.70;;;27.30;59.70;;;;;;7681128;22;81442;-57
2023/09/11 15:50:39;;;;;;;9.15;7.00;;;27.30;60.00;;;;;;7680521;22;80288;-58
2023/09/11 15:53:40;;;;;;;9.50;7.30;;;27.30;59.80;;;;;;7681685;22;80294;-55
2023/09/11 15:56:41;;;;;;;10.75;6.85;;;27.30;60.10;;;;;;7676999;22;81589;-58
2023/09/11 15:59:41;;;;;;;10.60;6.72;;;27.40;60.10;;;;;;7677949;22;80517;-58
2023/09/11 16:02:42;;;;;;;9.20;7.05;;;27.40;60.20;;;;;;7656890;22;81310;-59
2023/09/11 16:05:43;;;;;;;10.25;6.50;;;27.40;60.40;;;;;;7671277;22;81179;-59
2023/09/11 16:08:43;;;;;;;14.38;6.82;;;27.40;60.60;;;;;;7645053;22;80634;-58
2023/09/11 16:11:45;;;;;;;11.77;6.95;;;27.50;60.40;;;;;;7679127;22;80590;-58
2023/09/11 16:14:46;;;;;;;11.05;6.82;;;27.40;60.80;;;;;;7677806;22;80313;-57
2023/09/11 16:17:47;;;;;;;12.07;6.68;;;27.40;61.10;;;;;;7673302;22;80561;-58
2023/09/11 16:20:48;;;;;;;10.30;7.47;;;27.50;61.50;;;;;;7676817;22;80803;-59
2023/09/11 16:23:48;;;;;;;10.75;6.57;;;27.50;61.50;;;;;;7678715;22;80498;-59
2023/09/11 16:26:49;;;;;;;11.48;7.60;;;27.40;61.50;;;;;;7651305;22;84013;-58
2023/09/11 16:29:49;;;;;;;13.13;6.57;;;27.40;61.50;;;;;;7652158;22;80471;-58
2023/09/11 16:32:55;;;;;;;10.85;6.38;;;27.40;61.60;;;;;;7678053;22;80884;-58
2023/09/11 16:35:55;;;;;;;;;;;27.30;62.20;;;;;;7677097;22;80996;-59
2023/09/11 16:38:56;;;;;;;9.75;6.00;;;27.30;62.20;;;;;;7685995;22;81304;-59
2023/09/11 16:41:57;;;;;;;10.43;6.90;;;27.30;62.50;;;;;;7675657;22;80805;-59
2023/09/11 16:44:58;;;;;;;11.10;6.60;;;27.20;62.50;;;;;;7679026;22;80867;-59
2023/09/11 16:47:59;;;;;;;12.75;7.15;;;27.20;62.70;;;;;;7678513;22;80232;-54
2023/09/11 16:50:59;;;;;;;10.52;6.28;;;27.20;62.90;;;;;;7663081;22;81607;-59
2023/09/11 16:54:00;;;;;;;12.35;6.53;;;27.20;63.20;;;;;;7675142;22;80469;-60
2023/09/11 16:57:00;;;;;;;10.90;7.07;;;27.20;64.50;;;;;;7674332;22;80783;-60
2023/09/11 17:00:05;;;;;;;13.32;7.57;;;27.20;63.90;;;;;;7676827;22;80416;-59
2023/09/11 17:03:05;;;;;;;15.93;7.63;;;27.20;65.00;;;;;;7674349;22;80838;-59
2023/09/11 17:06:06;;;;;;;15.52;7.10;;;27.20;65.00;;;;;;7669608;22;81811;-59
2023/09/11 17:09:06;;;;;;;17.60;7.32;;;27.20;65.80;;;;;;7671411;22;81280;-56
2023/09/11 17:12:07;;;;;;;15.18;7.20;;;27.20;65.30;;;;;;7675773;22;80499;-58
2023/09/11 17:15:07;;;;;;;10.73;6.63;;;27.20;65.70;;;;;;7674367;22;81559;-60
2023/09/11 17:18:08;;;;;;;10.07;6.55;;;27.20;65.50;;;;;;7668498;22;82585;-58
2023/09/11 17:27:42;;;;;;;18.45;8.27;;;26.90;67.40;;;;;;7502176;22;82743;-58
2023/09/11 17:31:02;;;;;;;17.52;7.65;;;26.80;67.60;;;;;;7595345;22;80825;-57
2023/09/11 17:34:23;;;;;;;19.15;8.10;;;26.80;67.70;;;;;;7632719;22;80437;-54
2023/09/11 17:37:41;;;;;;;12.93;7.72;;;26.70;67.60;;;;;;7632592;22;84583;-57